• Join FlightAware (Why Join?)
  • Login
  • US Flag 
02:24AM EDT


 

Airport Tracker/Info


-or-


 

Live Flight TrackerFlight Track Log ✈ AWE1940 ✈ 17-Jun-2014 ✈ KCLT - KALB

Flight Track Log - Related Links

Times and Time Zones

All times are in EDT time to prevent confusion due to time zone crossing. See the AWE1940 flight status page for this flight to view local times or setup timezone preferences in your user account.

Time Position Orientation Groundspeed Altitude Reporting Facility
EDT Latitude Longitude Course Direction KTS MPH feet Rate Location/Type
10:25PM 35.1972 -80.9381 72° East 143 165 1,600  Level Atlanta Center
10:26PM 35.1511 -80.9294 171° South 173 199 3,000 1,680 Climbing Atlanta Center
10:27PM 35.0994 -80.8731 138° Southeast 279 321 5,100 2,400 Climbing Atlanta Center
10:28PM 35.2753 -80.5129 30° Northeast  Level FlightAware Approximate
10:28PM 35.0992 -80.7792 90° East 295 339 7,900  Level Atlanta Center
10:29PM 35.3491 -80.4069 72° East  Level FlightAware Approximate
10:29PM 35.1036 -80.7181 85° East 285 328 8,900  Level Atlanta Center
10:30PM 35.3889 -80.2558 72° East  Level FlightAware Approximate
10:30PM 35.1244 -80.6386 72° East 308 354 11,900  Level Atlanta Center
10:31PM 35.1808 -80.5675 46° Northeast 291 335 14,200 2,160 Climbing Atlanta Center
10:33PM 35.3056 -80.3617 53° Northeast 335 386 18,700 2,100 Climbing Washington Center
10:34PM 35.3681 -80.2583 53° Northeast 357 411 20,700 1,980 Climbing Washington Center
10:35PM 35.4264 -80.1522 56° Northeast 363 418 22,700 1,860 Climbing Washington Center
10:36PM 35.4556 -80.0442 72° East 363 418 24,500 1,620 Climbing Washington Center
10:37PM 35.4875 -79.9133 73° East 374 430 26,000 1,320 Climbing Washington Center
10:38PM 35.5236 -79.7825 71° East 390 449 27,200 1,200 Climbing Washington Center
10:39PM 35.5575 -79.6464 73° East 403 464 28,400 1,200 Climbing Washington Center
10:40PM 35.6022 -79.4878 71° East 439 505 29,600 1,080 Climbing Washington Center
10:41PM 35.6417 -79.3644 68° East 439 505 30,700 1,200 Climbing Washington Center
10:42PM 35.6981 -79.2264 63° Northeast 439 505 32,000 1,260 Climbing Washington Center
10:43PM 35.7525 -79.0881 64° Northeast 439 505 33,300 1,380 Climbing Washington Center
10:44PM 35.8083 -78.9522 63° Northeast 444 511 34,900 1,140 Climbing Washington Center
10:45PM 35.8622 -78.8161 64° Northeast 438 504 35,600 780 Climbing Washington Center
10:46PM 35.9264 -78.6803 60° Northeast 438 504 36,500 900 Climbing Washington Center
10:47PM 36.0011 -78.5317 58° Northeast 443 510 37,400 960 Climbing Washington Center
10:48PM 36.0647 -78.3981 59° Northeast 448 516 38,500 780 Climbing Washington Center
10:49PM 36.1283 -78.2639 60° Northeast 453 521 39,000 240 Climbing Washington Center
10:50PM 36.1917 -78.1322 59° Northeast 453 521 39,000  Level Washington Center
10:51PM 36.2569 -78.0003 58° Northeast 448 516 39,000  Level Washington Center
10:52PM 36.3203 -77.8656 60° Northeast 448 516 39,000  Level Washington Center
10:53PM 36.3811 -77.7358 60° Northeast 443 510 39,000  Level Washington Center
10:54PM 36.4311 -77.6133 63° Northeast 443 510 39,000  Level Washington Center
10:55PM 36.4939 -77.4806 60° Northeast 435 501 39,000  Level Washington Center
10:56PM 36.5564 -77.3478 60° Northeast 435 501 39,000  Level Washington Center
10:57PM 36.6272 -77.1967 60° Northeast 440 506 39,000  Level Washington Center
10:58PM 36.6936 -77.0633 58° Northeast 440 506 39,000  Level Washington Center
10:59PM 36.7783 -76.9533 46° Northeast 440 506 39,000  Level Washington Center
11:00PM 36.8817 -76.8617 35° Northeast 440 506 39,000  Level Washington Center
11:01PM 36.9847 -76.7672 36° Northeast 446 513 39,000  Level Washington Center
11:02PM 37.0858 -76.6725 37° Northeast 451 519 39,000  Level Washington Center
11:03PM 37.1889 -76.5772 36° Northeast 456 525 39,000  Level Washington Center
11:04PM 37.2917 -76.4847 36° Northeast 456 525 39,000  Level Washington Center
11:05PM 37.3947 -76.3917 36° Northeast 456 525 39,000  Level Washington Center
11:06PM 37.4994 -76.2986 35° Northeast 456 525 39,000  Level Washington Center
11:07PM 37.5981 -76.2050 37° Northeast 456 525 39,000 -60 Level Washington Center
11:08PM 37.7069 -76.1194 32° Northeast 456 525 38,900  Descending Washington Center
11:09PM 37.8053 -76.0386 33° Northeast 456 525 39,000 60 Climbing Washington Center
11:10PM 37.9139 -75.9550 31° Northeast 456 525 39,100  Climbing Washington Center
11:11PM 38.0247 -75.8711 31° Northeast 456 525 39,000 -60 Descending Washington Center
11:12PM 38.1333 -75.7897 31° Northeast 456 525 39,000  Level Washington Center
11:13PM 38.2419 -75.7028 32° Northeast 451 519 39,000 -60 Level Washington Center
11:14PM 38.3525 -75.6208 30° Northeast 451 519 38,900  Descending Washington Center
11:15PM 38.4631 -75.5361 31° Northeast 451 519 39,000  Climbing Washington Center
11:16PM 38.5714 -75.4536 31° Northeast 451 519 38,900  Descending Washington Center
11:17PM 38.6817 -75.3631 33° Northeast 451 519 39,000  Climbing Washington Center
11:18PM 38.7961 -75.2828 29° Northeast 456 525 39,000  Level Washington Center
11:19PM 38.9064 -75.1889 34° Northeast 461 531 39,000  Level Washington Center
11:20PM 39.0206 -75.1000 31° Northeast 466 536 39,000 -60 Level Washington Center
11:21PM 39.1350 -75.0108 31° Northeast 471 542 38,900 -60 Descending Washington Center
11:22PM 39.2469 -74.9217 32° Northeast 471 542 38,900  Level Washington Center
11:23PM 39.3611 -74.8292 32° Northeast 476 548 39,000 -60 Climbing Washington Center
11:24PM 39.4769 -74.7367 32° Northeast 476 548 38,800 -720 Descending Washington Center
11:26PM 39.6800 -74.5714 32° Northeast 489 563 37,100 -960 Descending Boston Center
11:26PM 39.7414 -74.5181 34° Northeast 485 558 36,600 -1,080 Descending New York Center
11:27PM 39.8647 -74.4381 26° Northeast 485 558 35,500 -840 Descending New York Center
11:28PM 39.9908 -74.4094 10° North 473 544 35,000 -300 Descending New York Center
11:29PM 40.1189 -74.3811 10° North 462 532 35,000  Level New York Center
11:30PM 40.2425 -74.3547 North 450 518 35,000  Level New York Center
11:31PM 40.3706 -74.3261 10° North 450 518 35,000  Level New York Center
11:32PM 40.4983 -74.3053 North 450 518 35,000 -60 Level New York Center
11:33PM 40.6256 -74.3011 North 450 518 34,900 -540 Descending New York Center
11:34PM 40.7514 -74.2719 10° North 450 518 34,000 -960 Descending New York Center
11:35PM 40.8792 -74.2456 North 455 524 33,000 -1,020 Descending New York Center
11:36PM 41.0072 -74.2136 11° North 460 529 32,000 -1,200 Descending New York Center
11:37PM 41.1350 -74.1897 North 460 529 30,600 -1,860 Descending New York Center
11:39PM 41.3314 -74.1394 11° North 443 510 27,200 -1,800 Descending Boston Center
11:40PM 41.4478 -74.1114 10° North 429 494 26,000 -1,200 Descending Boston Center
11:41PM 41.5508 -74.0881 10° North 385 443 24,900 -1,560 Descending Boston Center
11:42PM 41.6506 -74.0653 10° North 369 425 22,800 -2,040 Descending Boston Center
11:43PM 41.7517 -74.0411 10° North 366 421 20,800 -2,760 Descending Boston Center
11:44PM 41.8592 -74.0156 10° North 369 425 17,300 -3,180 Descending Boston Center
11:44PM 41.9283 -74.0003 North 392 451 15,500 -2,940 Descending Boston Center
11:45PM 41.9681 -73.9897 11° North 392 451 14,400 -2,880 Descending Boston Center
11:46PM 42.0811 -73.9633 10° North 399 459 11,700 -1,680 Descending Boston Center
11:47PM 42.1872 -73.9383 10° North 391 450 11,000 -540 Descending Boston Center
11:48PM 42.2828 -73.9156 10° North 345 397 10,600 -900 Descending Boston Center
11:49PM 42.3667 -73.8956 10° North 309 356 9,200 -2,040 Descending Boston Center
11:50PM 42.4517 -73.8747 10° North 293 337 6,500 -2,700 Descending Boston Center
11:51PM 42.5331 -73.8553 10° North 295 339 3,900 -2,220 Descending Boston Center
11:52PM 42.6133 -73.8356 10° North 297 342 2,100 -960 Descending Boston Center
11:53PM 42.6761 -73.7947 26° Northeast 256 295 2,000 -60 Descending Boston Center
11:54PM 42.7369 -73.7528 27° Northeast 251 289 2,000 -120 Level Boston Center
11:55PM 42.7942 -73.7403 North 216 249 1,800 -240 Descending Boston Center
11:56PM 42.8333 -73.7683 332° Northwest 174 200 1,600 -360 Descending Boston Center
11:57PM 42.8003 -73.8050 219° Southwest 132 152 1,100 -540 Descending Boston Center
11:58PM 42.7658 -73.8053 180° South 124 143 500 -420 Descending Boston Center
11:59PM 42.7375 -73.8047 179° South 132 152 300 -240 Descending Boston Center